Time;durP1;ratioP1;P1;durP2;ratioP2;P2;SDS_P1;SDS_P2;PMS_P1;PMS_P2;Temp;Humidity;BMP_temperature;BMP_pressure;BME280_temperature;BME280_humidity;BME280_pressure;Samples;Min_cycle;Max_cycle;Signal;HPM_P1;HPM_P2
2023/08/13 00:02:19;;;;;;;3.35;3.05;;;;;;;;;;5043187;28;20198;-77
2023/08/13 00:04:46;;;;;;;3.17;2.95;;;;;;;;;;5040780;28;20214;-76
2023/08/13 00:07:13;;;;;;;5.18;3.03;;;;;;;;;;5042399;28;20241;-78
2023/08/13 00:09:41;;;;;;;3.22;2.72;;;;;;;;;;5044871;28;20205;-77
2023/08/13 00:12:08;;;;;;;3.60;3.30;;;;;;;;;;5040183;28;20270;-77
2023/08/13 00:14:36;;;;;;;3.20;2.90;;;;;;;;;;5033937;28;20261;-78
2023/08/13 00:17:04;;;;;;;3.25;3.00;;;;;;;;;;5032891;28;20226;-78
2023/08/13 00:19:32;;;;;;;3.10;2.80;;;;;;;;;;5037142;28;20202;-78
2023/08/13 00:21:59;;;;;;;3.08;2.72;;;;;;;;;;5041171;28;20242;-78
2023/08/13 00:24:37;;;;;;;4.25;3.20;;;;;;;;;;5042739;28;20279;-76
2023/08/13 00:27:04;;;;;;;6.18;3.10;;;;;;;;;;5041760;28;20235;-78
2023/08/13 00:29:33;;;;;;;3.22;2.90;;;;;;;;;;5016656;28;20202;-77
2023/08/13 00:32:00;;;;;;;3.40;3.10;;;;;;;;;;5040533;28;20313;-78
2023/08/13 00:34:28;;;;;;;4.93;3.40;;;;;;;;;;5039435;28;20302;-77
2023/08/13 00:36:55;;;;;;;5.25;2.92;;;;;;;;;;5044055;28;20716;-76
2023/08/13 00:39:22;;;;;;;5.55;3.70;;;;;;;;;;5045364;28;20661;-77
2023/08/13 00:41:49;;;;;;;4.32;3.10;;;;;;;;;;5045884;28;20233;-78
2023/08/13 00:44:17;;;;;;;6.20;3.28;;;;;;;;;;5038835;28;20569;-78
2023/08/13 00:46:44;;;;;;;3.92;3.40;;;;;;;;;;5043650;28;20220;-78
2023/08/13 00:49:12;;;;;;;5.43;3.35;;;;;;;;;;5037849;28;20241;-79
2023/08/13 00:51:39;;;;;;;3.10;2.85;;;;;;;;;;5039165;28;20229;-77
2023/08/13 00:54:07;;;;;;;5.15;3.17;;;;;;;;;;5038579;28;20205;-78
2023/08/13 00:56:38;;;;;;;3.17;2.95;;;;;;;;;;5039887;28;20206;-77
2023/08/13 00:59:06;;;;;;;4.65;3.00;;;;;;;;;;5036832;28;20198;-77
2023/08/13 01:01:34;;;;;;;4.75;3.42;;;;;;;;;;5042952;28;20361;-76
2023/08/13 01:04:01;;;;;;;3.45;3.15;;;;;;;;;;5020572;28;20207;-77
2023/08/13 01:06:47;;;;;;;4.78;3.67;;;;;;;;;;5042002;28;20256;-78
2023/08/13 01:09:14;;;;;;;6.00;3.72;;;;;;;;;;5042301;28;20206;-77
2023/08/13 01:11:54;;;;;;;3.83;3.53;;;;;;;;;;5045296;28;20221;-76
2023/08/13 01:14:28;;;;;;;3.67;3.38;;;;;;;;;;5040844;28;20718;-77
2023/08/13 01:16:56;;;;;;;3.92;3.50;;;;;;;;;;5014506;28;20202;-79
2023/08/13 01:19:24;;;;;;;5.68;3.40;;;;;;;;;;5041979;28;20221;-76
2023/08/13 01:21:51;;;;;;;3.70;3.30;;;;;;;;;;5042540;28;20660;-77
2023/08/13 01:24:18;;;;;;;3.92;3.42;;;;;;;;;;5016928;28;20301;-78
2023/08/13 01:26:53;;;;;;;4.28;3.38;;;;;;;;;;5037175;28;20574;-77
2023/08/13 01:29:39;;;;;;;8.70;7.45;;;;;;;;;;5043253;28;20212;-76
2023/08/13 01:32:09;;;;;;;3.83;2.63;;;;;;;;;;5042862;28;21169;-77
2023/08/13 01:34:37;;;;;;;2.85;2.55;;;;;;;;;;5045027;28;20674;-77
2023/08/13 01:37:05;;;;;;;3.50;2.72;;;;;;;;;;5018680;28;20738;-78
2023/08/13 01:39:32;;;;;;;2.88;2.10;;;;;;;;;;5046364;28;20194;-77
2023/08/13 01:42:00;;;;;;;4.82;2.90;;;;;;;;;;5044996;28;20206;-77
2023/08/13 01:44:27;;;;;;;3.30;3.00;;;;;;;;;;5039149;28;20198;-77
2023/08/13 01:46:54;;;;;;;3.28;2.97;;;;;;;;;;5040907;28;20206;-76
2023/08/13 01:49:22;;;;;;;3.60;3.28;;;;;;;;;;5046769;28;20206;-76
2023/08/13 01:51:49;;;;;;;2.92;2.67;;;;;;;;;;5046660;28;20224;-76
2023/08/13 01:54:16;;;;;;;3.58;3.28;;;;;;;;;;5048472;28;20198;-77
2023/08/13 01:56:43;;;;;;;4.90;2.90;;;;;;;;;;5047992;28;20221;-77
2023/08/13 01:59:11;;;;;;;3.40;2.70;;;;;;;;;;5040871;28;20206;-77
2023/08/13 02:01:38;;;;;;;5.47;3.30;;;;;;;;;;5045054;28;20206;-76
2023/08/13 02:04:05;;;;;;;5.25;2.80;;;;;;;;;;5042900;28;20336;-76
2023/08/13 02:06:35;;;;;;;5.75;2.63;;;;;;;;;;5045273;28;20676;-76
2023/08/13 02:09:03;;;;;;;5.22;2.85;;;;;;;;;;5026101;28;20222;-76
2023/08/13 02:11:30;;;;;;;3.63;2.80;;;;;;;;;;5047145;28;20713;-76
2023/08/13 02:13:57;;;;;;;4.63;3.33;;;;;;;;;;5020828;28;20199;-76
2023/08/13 02:16:24;;;;;;;3.88;3.53;;;;;;;;;;5023028;28;20202;-76
2023/08/13 02:18:52;;;;;;;4.63;3.63;;;;;;;;;;5049122;28;20226;-76
2023/08/13 02:21:19;;;;;;;4.30;3.90;;;;;;;;;;5045810;28;20217;-76
2023/08/13 02:23:47;;;;;;;10.65;4.80;;;;;;;;;;5024957;28;20206;-76
2023/08/13 02:26:14;;;;;;;4.85;4.35;;;;;;;;;;5044636;28;20211;-76
2023/08/13 02:28:45;;;;;;;4.15;3.75;;;;;;;;;;5045761;28;20456;-76
2023/08/13 02:31:13;;;;;;;5.07;4.10;;;;;;;;;;5047167;28;20228;-76
2023/08/13 02:33:40;;;;;;;4.85;4.35;;;;;;;;;;5047022;28;20194;-76
2023/08/13 02:36:07;;;;;;;7.43;4.03;;;;;;;;;;5044767;28;20199;-76
2023/08/13 02:38:35;;;;;;;5.70;3.38;;;;;;;;;;5040042;28;20218;-76
2023/08/13 02:41:02;;;;;;;8.10;4.03;;;;;;;;;;5049731;28;20210;-76
2023/08/13 02:43:34;;;;;;;4.35;3.42;;;;;;;;;;5041471;28;20214;-76
2023/08/13 02:46:01;;;;;;;3.60;3.10;;;;;;;;;;5027256;28;20679;-76
2023/08/13 02:48:28;;;;;;;4.22;3.63;;;;;;;;;;5031745;28;20300;-76
2023/08/13 02:50:56;;;;;;;3.80;3.40;;;;;;;;;;5045577;28;20290;-76
2023/08/13 02:53:23;;;;;;;3.75;3.40;;;;;;;;;;5041912;28;20600;-76
2023/08/13 02:55:50;;;;;;;4.28;2.90;;;;;;;;;;5045310;28;20554;-76
2023/08/13 02:58:18;;;;;;;4.05;3.42;;;;;;;;;;5045120;28;20218;-75
2023/08/13 03:00:45;;;;;;;5.63;3.83;;;;;;;;;;5041553;28;20253;-76
2023/08/13 03:03:12;;;;;;;3.55;3.22;;;;;;;;;;5044517;28;20603;-76
2023/08/13 03:05:40;;;;;;;6.57;3.67;;;;;;;;;;5019321;28;20198;-76
2023/08/13 03:08:07;;;;;;;4.85;3.17;;;;;;;;;;5034862;28;20246;-76
2023/08/13 03:10:35;;;;;;;7.63;3.22;;;;;;;;;;5018432;28;20289;-76
2023/08/13 03:13:02;;;;;;;5.05;2.80;;;;;;;;;;5036536;28;20587;-76
2023/08/13 03:15:29;;;;;;;4.35;2.70;;;;;;;;;;5036694;28;20582;-77
2023/08/13 03:17:57;;;;;;;5.35;2.58;;;;;;;;;;5016517;28;20222;-76
2023/08/13 03:20:24;;;;;;;4.40;2.95;;;;;;;;;;5041037;28;20210;-77
2023/08/13 03:22:52;;;;;;;8.88;3.00;;;;;;;;;;5021292;28;20202;-76
2023/08/13 03:25:19;;;;;;;3.80;2.70;;;;;;;;;;5040635;28;20660;-76
2023/08/13 03:27:48;;;;;;;3.35;2.97;;;;;;;;;;5041730;28;20831;-77
2023/08/13 03:30:15;;;;;;;3.40;3.10;;;;;;;;;;5038198;28;20209;-77
2023/08/13 03:32:42;;;;;;;4.55;3.47;;;;;;;;;;5037125;28;20229;-76
2023/08/13 03:35:10;;;;;;;4.00;3.70;;;;;;;;;;5041922;28;20206;-76
2023/08/13 03:37:37;;;;;;;4.30;3.80;;;;;;;;;;5040679;28;20704;-76
2023/08/13 03:40:05;;;;;;;5.05;3.97;;;;;;;;;;5041210;28;20213;-76
2023/08/13 03:42:33;;;;;;;4.90;4.30;;;;;;;;;;5039771;28;20656;-76
2023/08/13 03:45:00;;;;;;;4.60;4.22;;;;;;;;;;5039844;28;20862;-76
2023/08/13 03:47:27;;;;;;;4.47;4.10;;;;;;;;;;5039416;28;20313;-76
2023/08/13 03:49:55;;;;;;;5.38;3.80;;;;;;;;;;5041179;28;20233;-76
2023/08/13 03:52:22;;;;;;;4.30;3.90;;;;;;;;;;5040339;28;20222;-76
2023/08/13 03:54:49;;;;;;;4.85;3.85;;;;;;;;;;5043098;28;20206;-76
2023/08/13 03:57:16;;;;;;;4.10;3.65;;;;;;;;;;5015893;28;20226;-74
2023/08/13 03:59:44;;;;;;;5.50;3.55;;;;;;;;;;5041375;28;20209;-76
2023/08/13 04:02:11;;;;;;;4.85;3.58;;;;;;;;;;5041478;28;20234;-76
2023/08/13 04:04:39;;;;;;;4.68;3.50;;;;;;;;;;5038783;28;20289;-77
2023/08/13 04:07:07;;;;;;;4.40;3.70;;;;;;;;;;5038065;28;20226;-77
2023/08/13 04:09:34;;;;;;;4.53;4.13;;;;;;;;;;5046080;28;20202;-76
2023/08/13 04:12:01;;;;;;;4.95;4.53;;;;;;;;;;5043899;28;20236;-76
2023/08/13 04:14:29;;;;;;;4.25;3.65;;;;;;;;;;5045285;28;20285;-76
2023/08/13 04:16:56;;;;;;;4.47;4.07;;;;;;;;;;5043935;28;20217;-76
2023/08/13 04:19:23;;;;;;;4.18;3.78;;;;;;;;;;5043124;28;20610;-75
2023/08/13 04:21:50;;;;;;;5.00;3.83;;;;;;;;;;5046804;28;20848;-75
2023/08/13 04:24:18;;;;;;;5.07;4.55;;;;;;;;;;5045549;28;20202;-76
2023/08/13 04:26:45;;;;;;;5.35;4.85;;;;;;;;;;5044151;28;20579;-75
2023/08/13 04:29:12;;;;;;;5.03;4.60;;;;;;;;;;5015982;28;20212;-76
2023/08/13 04:31:40;;;;;;;4.57;4.18;;;;;;;;;;5044009;28;20206;-75
2023/08/13 04:34:07;;;;;;;6.63;4.07;;;;;;;;;;5040969;28;20272;-76
2023/08/13 04:36:36;;;;;;;8.85;8.05;;;;;;;;;;5014383;28;20195;-76
2023/08/13 04:39:03;;;;;;;10.55;6.22;;;;;;;;;;5038450;28;20230;-76
2023/08/13 04:41:31;;;;;;;5.75;4.10;;;;;;;;;;5036734;28;20195;-76
2023/08/13 04:43:58;;;;;;;6.43;3.38;;;;;;;;;;5043671;28;20210;-76
2023/08/13 04:46:25;;;;;;;4.55;3.78;;;;;;;;;;5043161;28;20294;-76
2023/08/13 04:48:53;;;;;;;4.70;4.22;;;;;;;;;;5022736;28;20218;-76
2023/08/13 04:51:20;;;;;;;8.23;4.10;;;;;;;;;;5036309;28;20209;-77
2023/08/13 04:53:47;;;;;;;7.55;4.28;;;;;;;;;;5036232;28;20214;-77
2023/08/13 04:56:15;;;;;;;4.97;4.25;;;;;;;;;;5036252;28;20298;-77
2023/08/13 04:58:43;;;;;;;5.05;3.92;;;;;;;;;;5028078;28;23081;-77
2023/08/13 05:01:11;;;;;;;5.65;5.15;;;;;;;;;;5036527;28;20793;-77
2023/08/13 05:03:39;;;;;;;4.38;3.90;;;;;;;;;;5029478;28;20203;-76
2023/08/13 05:06:07;;;;;;;6.35;3.78;;;;;;;;;;5038018;28;20209;-76
2023/08/13 05:08:34;;;;;;;5.55;4.45;;;;;;;;;;5035333;28;20244;-76
2023/08/13 05:11:01;;;;;;;6.13;4.60;;;;;;;;;;5039582;28;20217;-76
2023/08/13 05:13:29;;;;;;;7.13;4.43;;;;;;;;;;5035615;28;20222;-76
2023/08/13 05:15:56;;;;;;;6.20;4.53;;;;;;;;;;5033438;28;20306;-77
2023/08/13 05:18:23;;;;;;;5.43;3.78;;;;;;;;;;5019108;28;20301;-77
2023/08/13 05:20:51;;;;;;;4.10;3.80;;;;;;;;;;5027401;28;20207;-77
2023/08/13 05:23:18;;;;;;;4.97;3.83;;;;;;;;;;5033490;28;20208;-77
2023/08/13 05:25:45;;;;;;;4.72;3.30;;;;;;;;;;5035914;28;20229;-77
2023/08/13 05:28:13;;;;;;;4.32;3.55;;;;;;;;;;5041433;28;20732;-76
2023/08/13 05:30:40;;;;;;;6.95;3.90;;;;;;;;;;5031355;28;20703;-77
2023/08/13 05:33:07;;;;;;;5.97;4.15;;;;;;;;;;5027700;28;20226;-76
2023/08/13 05:35:36;;;;;;;5.75;5.00;;;;;;;;;;5028422;28;20801;-76
2023/08/13 05:38:03;;;;;;;4.88;3.90;;;;;;;;;;5032563;28;20230;-76
2023/08/13 05:40:33;;;;;;;5.13;4.38;;;;;;;;;;5037415;28;20215;-76
2023/08/13 05:43:02;;;;;;;5.65;4.18;;;;;;;;;;5037506;28;20288;-78
2023/08/13 05:45:31;;;;;;;7.90;6.20;;;;;;;;;;5012565;28;20623;-75
2023/08/13 05:47:58;;;;;;;8.20;5.63;;;;;;;;;;5033335;28;20242;-78
2023/08/13 05:50:26;;;;;;;6.68;5.55;;;;;;;;;;5032548;28;20214;-77
2023/08/13 05:52:53;;;;;;;8.10;5.57;;;;;;;;;;5034862;28;20312;-77
2023/08/13 05:55:21;;;;;;;7.05;6.35;;;;;;;;;;5036352;28;20656;-76
2023/08/13 05:57:48;;;;;;;7.38;5.93;;;;;;;;;;5019349;28;20214;-77
2023/08/13 06:00:15;;;;;;;9.13;6.45;;;;;;;;;;5040945;28;20760;-77
2023/08/13 06:02:43;;;;;;;7.10;6.32;;;;;;;;;;5030902;28;20214;-74
2023/08/13 06:05:11;;;;;;;6.40;5.80;;;;;;;;;;5041522;28;20214;-75
2023/08/13 06:07:38;;;;;;;6.97;6.38;;;;;;;;;;5042134;28;20623;-76
2023/08/13 06:10:05;;;;;;;5.90;5.30;;;;;;;;;;5040117;28;20918;-77
2023/08/13 06:12:33;;;;;;;5.85;5.30;;;;;;;;;;5038153;28;20226;-76
2023/08/13 06:15:01;;;;;;;6.50;5.38;;;;;;;;;;5017239;28;20198;-77
2023/08/13 06:17:28;;;;;;;5.70;5.15;;;;;;;;;;5040427;28;20229;-75
2023/08/13 06:19:55;;;;;;;6.55;5.53;;;;;;;;;;5044952;28;20674;-74
2023/08/13 06:22:24;;;;;;;5.85;5.35;;;;;;;;;;5041977;28;20226;-76
2023/08/13 06:24:51;;;;;;;6.07;5.38;;;;;;;;;;5041181;28;20376;-75
2023/08/13 06:27:19;;;;;;;6.55;5.95;;;;;;;;;;5043878;28;20230;-74
2023/08/13 06:29:46;;;;;;;6.28;5.15;;;;;;;;;;5043692;28;20206;-76
2023/08/13 06:32:33;;;;;;;7.03;6.53;;;;;;;;;;5042624;28;20280;-78
2023/08/13 06:35:01;;;;;;;6.18;5.63;;;;;;;;;;5038609;28;20202;-73
2023/08/13 06:37:28;;;;;;;5.63;5.22;;;;;;;;;;5023454;28;20226;-75
2023/08/13 06:39:56;;;;;;;6.82;6.05;;;;;;;;;;5037316;28;20198;-76
2023/08/13 06:42:23;;;;;;;6.70;6.07;;;;;;;;;;5033304;28;20213;-76
2023/08/13 06:44:50;;;;;;;7.50;6.03;;;;;;;;;;5034833;28;20206;-76
2023/08/13 06:47:18;;;;;;;5.95;5.13;;;;;;;;;;5035408;28;20225;-76
2023/08/13 06:49:45;;;;;;;7.05;6.40;;;;;;;;;;5040408;28;20202;-76
2023/08/13 06:52:12;;;;;;;7.80;6.47;;;;;;;;;;5040468;28;20871;-77
2023/08/13 06:54:40;;;;;;;6.65;5.97;;;;;;;;;;5039981;28;20325;-76
2023/08/13 06:57:08;;;;;;;6.68;6.03;;;;;;;;;;5039590;28;20225;-76
2023/08/13 06:59:35;;;;;;;6.78;6.10;;;;;;;;;;5040241;28;20706;-76
2023/08/13 07:02:04;;;;;;;6.50;5.90;;;;;;;;;;5034997;28;20219;-77
2023/08/13 07:04:32;;;;;;;8.07;5.88;;;;;;;;;;5040838;28;20206;-76
2023/08/13 07:06:59;;;;;;;6.07;5.47;;;;;;;;;;5039699;28;20203;-76
2023/08/13 07:09:27;;;;;;;6.40;5.22;;;;;;;;;;5038855;28;20212;-76
2023/08/13 07:11:55;;;;;;;6.18;5.57;;;;;;;;;;5038499;28;20302;-76
2023/08/13 07:14:22;;;;;;;7.40;5.80;;;;;;;;;;5041577;28;20228;-75
2023/08/13 07:16:50;;;;;;;6.78;5.93;;;;;;;;;;5035641;28;20202;-76
2023/08/13 07:19:17;;;;;;;6.60;6.00;;;;;;;;;;5016871;28;20709;-77
2023/08/13 07:21:45;;;;;;;7.80;6.30;;;;;;;;;;5036762;28;20206;-76
2023/08/13 07:24:12;;;;;;;7.05;6.35;;;;;;;;;;5030687;28;20213;-76
2023/08/13 07:26:39;;;;;;;6.53;5.90;;;;;;;;;;5036118;28;20206;-77
2023/08/13 07:29:07;;;;;;;8.68;7.15;;;;;;;;;;5034700;28;20209;-76
2023/08/13 07:31:35;;;;;;;8.93;6.82;;;;;;;;;;5030909;28;20230;-77
2023/08/13 07:34:03;;;;;;;8.32;7.50;;;;;;;;;;5019478;28;20325;-77
2023/08/13 07:36:30;;;;;;;8.43;7.63;;;;;;;;;;5038072;28;20209;-77
2023/08/13 07:38:58;;;;;;;8.60;7.65;;;;;;;;;;5031171;28;20249;-76
2023/08/13 07:41:25;;;;;;;8.23;7.43;;;;;;;;;;5038880;28;20205;-76
2023/08/13 07:43:52;;;;;;;7.75;7.05;;;;;;;;;;5036321;28;20216;-76
2023/08/13 07:46:20;;;;;;;8.13;7.32;;;;;;;;;;5043624;28;20675;-76
2023/08/13 07:48:50;;;;;;;9.38;8.13;;;;;;;;;;5029319;28;20233;-75
2023/08/13 07:51:18;;;;;;;9.13;8.23;;;;;;;;;;5047560;28;20213;-74
2023/08/13 07:53:45;;;;;;;8.90;8.10;;;;;;;;;;5039882;28;20265;-77
2023/08/13 07:56:13;;;;;;;8.27;7.47;;;;;;;;;;5037108;28;20206;-76
2023/08/13 07:58:40;;;;;;;9.18;8.27;;;;;;;;;;5014891;28;20226;-74
2023/08/13 08:01:12;;;;;;;8.52;7.80;;;;;;;;;;5044915;28;20293;-78
2023/08/13 08:03:41;;;;;;;7.75;7.13;;;;;;;;;;5043054;28;20252;-77
2023/08/13 08:06:08;;;;;;;7.85;7.15;;;;;;;;;;5042397;28;20260;-76
2023/08/13 08:08:39;;;;;;;7.78;6.82;;;;;;;;;;5041832;28;20218;-76
2023/08/13 08:11:06;;;;;;;9.07;6.18;;;;;;;;;;5042368;28;20438;-77
2023/08/13 08:13:34;;;;;;;7.65;6.95;;;;;;;;;;5043786;28;20234;-76
2023/08/13 08:16:02;;;;;;;7.10;6.47;;;;;;;;;;5041955;28;20195;-77
2023/08/13 08:18:29;;;;;;;7.80;6.70;;;;;;;;;;5039930;28;20221;-75
2023/08/13 08:20:57;;;;;;;8.45;6.50;;;;;;;;;;5041668;28;20493;-76
2023/08/13 08:23:24;;;;;;;7.13;6.43;;;;;;;;;;5044281;28;20218;-76
2023/08/13 08:25:52;;;;;;;7.43;6.00;;;;;;;;;;5039846;28;20202;-75
2023/08/13 08:28:22;;;;;;;6.28;5.68;;;;;;;;;;5042320;28;20240;-76
2023/08/13 08:30:52;;;;;;;5.97;5.30;;;;;;;;;;5041817;28;20620;-74
2023/08/13 08:33:22;;;;;;;5.72;5.22;;;;;;;;;;5041520;28;20217;-75
2023/08/13 08:35:49;;;;;;;6.30;5.70;;;;;;;;;;5046948;28;20199;-75
2023/08/13 08:38:16;;;;;;;5.65;5.13;;;;;;;;;;5043279;28;20222;-77
2023/08/13 08:40:45;;;;;;;5.90;5.10;;;;;;;;;;5043668;28;20198;-77
2023/08/13 08:43:13;;;;;;;6.75;5.55;;;;;;;;;;5034364;28;20198;-77
2023/08/13 08:45:40;;;;;;;7.15;6.00;;;;;;;;;;5034833;28;20293;-77
2023/08/13 08:48:08;;;;;;;6.65;5.75;;;;;;;;;;5044425;28;20253;-75
2023/08/13 08:50:38;;;;;;;6.40;5.35;;;;;;;;;;5048263;28;20202;-76
2023/08/13 08:53:06;;;;;;;6.32;5.55;;;;;;;;;;5041953;28;20652;-77
2023/08/13 08:55:33;;;;;;;7.05;4.93;;;;;;;;;;5037590;28;20620;-75
2023/08/13 08:58:01;;;;;;;5.97;5.25;;;;;;;;;;5032948;28;20394;-76
2023/08/13 09:00:28;;;;;;;7.82;5.18;;;;;;;;;;5034829;28;20209;-75
2023/08/13 09:02:55;;;;;;;8.35;6.05;;;;;;;;;;5035533;28;20233;-78
2023/08/13 09:05:23;;;;;;;8.50;5.90;;;;;;;;;;5032108;28;20439;-77
2023/08/13 09:07:50;;;;;;;7.22;5.18;;;;;;;;;;5036346;28;20319;-76
2023/08/13 09:10:18;;;;;;;6.20;4.55;;;;;;;;;;5038090;28;20293;-76
2023/08/13 09:12:46;;;;;;;4.78;4.38;;;;;;;;;;5034262;28;20209;-77
2023/08/13 09:15:13;;;;;;;5.63;4.68;;;;;;;;;;5038708;28;20232;-78
2023/08/13 09:17:41;;;;;;;7.10;5.45;;;;;;;;;;5034180;28;21847;-76
2023/08/13 09:20:09;;;;;;;6.68;5.68;;;;;;;;;;5032440;28;20240;-77
2023/08/13 09:22:37;;;;;;;5.70;4.13;;;;;;;;;;5034585;28;20206;-77
2023/08/13 09:25:04;;;;;;;4.63;4.20;;;;;;;;;;5029119;28;20287;-75
2023/08/13 09:27:32;;;;;;;4.78;3.83;;;;;;;;;;5032376;28;20237;-76
2023/08/13 09:29:59;;;;;;;4.38;2.90;;;;;;;;;;5033373;28;20240;-75
2023/08/13 09:32:30;;;;;;;4.60;3.22;;;;;;;;;;5041097;28;20466;-77
2023/08/13 09:34:58;;;;;;;4.65;3.63;;;;;;;;;;5038492;28;20294;-77
2023/08/13 09:37:25;;;;;;;3.92;3.28;;;;;;;;;;5035008;28;20279;-76
2023/08/13 09:39:52;;;;;;;3.72;3.05;;;;;;;;;;5036199;28;20612;-76
2023/08/13 09:42:23;;;;;;;3.85;3.08;;;;;;;;;;5035346;28;20668;-77
2023/08/13 09:44:56;;;;;;;3.83;3.00;;;;;;;;;;5035605;28;20258;-76
2023/08/13 09:47:26;;;;;;;3.50;2.47;;;;;;;;;;5022432;28;20292;-74
2023/08/13 09:49:56;;;;;;;3.28;2.95;;;;;;;;;;5037196;28;20737;-77
2023/08/13 09:52:25;;;;;;;3.85;2.95;;;;;;;;;;5036501;28;20586;-74
2023/08/13 09:54:55;;;;;;;2.97;2.60;;;;;;;;;;5046156;28;20226;-77
2023/08/13 09:57:23;;;;;;;4.60;3.03;;;;;;;;;;5040364;28;20581;-76
2023/08/13 09:59:50;;;;;;;3.05;2.72;;;;;;;;;;5021956;28;20577;-76
2023/08/13 10:02:18;;;;;;;5.35;3.15;;;;;;;;;;5036427;28;20210;-75
2023/08/13 10:04:46;;;;;;;4.30;3.10;;;;;;;;;;5025333;28;20253;-75
2023/08/13 10:07:14;;;;;;;4.32;3.10;;;;;;;;;;5047348;28;20268;-77
2023/08/13 10:09:41;;;;;;;5.57;2.92;;;;;;;;;;5024331;28;20206;-74
2023/08/13 10:12:12;;;;;;;4.03;3.13;;;;;;;;;;5048033;28;20209;-75
2023/08/13 10:14:40;;;;;;;5.13;3.05;;;;;;;;;;5046930;28;20222;-75
2023/08/13 10:17:07;;;;;;;3.97;3.05;;;;;;;;;;5044341;28;20233;-77
2023/08/13 10:19:37;;;;;;;4.63;3.00;;;;;;;;;;5043426;28;20249;-77
2023/08/13 10:22:04;;;;;;;3.58;2.80;;;;;;;;;;5047355;28;20244;-74
2023/08/13 10:24:32;;;;;;;3.30;2.60;;;;;;;;;;5038883;28;20213;-75
2023/08/13 10:27:00;;;;;;;4.07;2.88;;;;;;;;;;5030198;28;20257;-76
2023/08/13 10:29:37;;;;;;;4.00;3.15;;;;;;;;;;5037234;28;20297;-76
2023/08/13 10:32:12;;;;;;;5.00;2.88;;;;;;;;;;5042720;28;20722;-77
2023/08/13 10:34:50;;;;;;;4.00;3.30;;;;;;;;;;5049536;28;20229;-77
2023/08/13 10:37:18;;;;;;;5.00;2.78;;;;;;;;;;5045436;28;20256;-75
2023/08/13 10:39:46;;;;;;;3.83;3.03;;;;;;;;;;5024169;28;20226;-76
2023/08/13 10:42:34;;;;;;;6.57;3.13;;;;;;;;;;5042401;28;20295;-76
2023/08/13 10:45:01;;;;;;;3.60;2.50;;;;;;;;;;5029581;28;20748;-75
2023/08/13 10:47:46;;;;;;;4.68;3.20;;;;;;;;;;5021936;28;20250;-75
2023/08/13 10:50:21;;;;;;;4.43;3.20;;;;;;;;;;5043835;28;20198;-77
2023/08/13 10:52:53;;;;;;;4.43;3.17;;;;;;;;;;5050625;28;20214;-76
2023/08/13 10:55:24;;;;;;;7.15;3.15;;;;;;;;;;5039138;28;20313;-76
2023/08/13 10:57:53;;;;;;;6.80;3.50;;;;;;;;;;5030590;28;20597;-76
2023/08/13 11:00:24;;;;;;;4.07;3.28;;;;;;;;;;5047005;28;20289;-77
2023/08/13 11:03:02;;;;;;;3.30;2.90;;;;;;;;;;5049787;28;20195;-74
2023/08/13 11:05:29;;;;;;;3.70;3.33;;;;;;;;;;5044765;28;20640;-75
2023/08/13 11:07:59;;;;;;;6.30;3.42;;;;;;;;;;5050656;28;20568;-75
2023/08/13 11:10:27;;;;;;;4.45;3.20;;;;;;;;;;5045436;28;20203;-76
2023/08/13 11:12:54;;;;;;;4.55;3.42;;;;;;;;;;5046997;28;20285;-75
2023/08/13 11:15:21;;;;;;;5.30;3.30;;;;;;;;;;5045422;28;20214;-74
2023/08/13 11:17:49;;;;;;;6.53;3.70;;;;;;;;;;5049610;28;20250;-76
2023/08/13 11:20:19;;;;;;;3.88;3.53;;;;;;;;;;5051758;28;20293;-75
2023/08/13 11:22:47;;;;;;;5.72;3.42;;;;;;;;;;5052076;28;20210;-74
2023/08/13 11:25:15;;;;;;;5.82;3.17;;;;;;;;;;5050490;28;20806;-75
2023/08/13 11:27:42;;;;;;;3.65;3.20;;;;;;;;;;5048382;28;20230;-75
2023/08/13 11:30:09;;;;;;;6.57;3.60;;;;;;;;;;5045227;28;20214;-76
2023/08/13 11:32:40;;;;;;;3.92;3.35;;;;;;;;;;5047004;28;20214;-75
2023/08/13 11:35:09;;;;;;;6.28;3.63;;;;;;;;;;5028562;28;20233;-76
2023/08/13 11:37:37;;;;;;;5.05;3.35;;;;;;;;;;5042761;28;20638;-75
2023/08/13 11:40:05;;;;;;;4.47;3.55;;;;;;;;;;5041840;28;20210;-76
2023/08/13 11:42:33;;;;;;;4.93;3.50;;;;;;;;;;5047294;28;20636;-76
2023/08/13 11:45:10;;;;;;;5.05;3.38;;;;;;;;;;5048142;28;20205;-76
2023/08/13 11:47:37;;;;;;;4.20;3.65;;;;;;;;;;5044502;28;20222;-77
2023/08/13 11:50:05;;;;;;;6.57;3.63;;;;;;;;;;5045474;28;20214;-75
2023/08/13 11:52:32;;;;;;;5.43;4.15;;;;;;;;;;5042031;28;20205;-76
2023/08/13 11:55:01;;;;;;;3.85;3.47;;;;;;;;;;5046072;28;20888;-75
2023/08/13 11:57:28;;;;;;;5.38;3.60;;;;;;;;;;5052234;28;20301;-75
2023/08/13 11:59:57;;;;;;;4.60;3.38;;;;;;;;;;5048802;28;20213;-76
2023/08/13 12:02:25;;;;;;;5.28;3.53;;;;;;;;;;5046347;28;20205;-75
2023/08/13 12:04:54;;;;;;;5.32;4.55;;;;;;;;;;5028450;28;20286;-76
2023/08/13 12:07:22;;;;;;;7.05;4.10;;;;;;;;;;5037800;28;20222;-76
2023/08/13 12:09:49;;;;;;;5.60;4.00;;;;;;;;;;5040741;28;20579;-77
2023/08/13 12:12:16;;;;;;;5.97;4.13;;;;;;;;;;5044255;28;20333;-74
2023/08/13 12:14:45;;;;;;;6.15;4.95;;;;;;;;;;5041455;28;20222;-76
2023/08/13 12:17:12;;;;;;;6.35;5.63;;;;;;;;;;5042313;28;20548;-76
2023/08/13 12:19:40;;;;;;;8.13;6.32;;;;;;;;;;5046892;28;20240;-75
2023/08/13 12:22:07;;;;;;;10.48;7.00;;;;;;;;;;5043576;28;20210;-75
2023/08/13 12:24:35;;;;;;;8.23;5.75;;;;;;;;;;5046021;28;20212;-75
2023/08/13 12:27:02;;;;;;;12.23;6.50;;;;;;;;;;5044480;28;20320;-75
2023/08/13 12:29:29;;;;;;;11.32;6.40;;;;;;;;;;5038615;28;20583;-76
2023/08/13 12:31:57;;;;;;;14.23;10.38;;;;;;;;;;5020790;28;20468;-75
2023/08/13 12:34:24;;;;;;;9.20;6.75;;;;;;;;;;5038395;28;20719;-75
2023/08/13 12:36:51;;;;;;;15.30;12.63;;;;;;;;;;5041693;28;20595;-77
2023/08/13 12:39:20;;;;;;;6.68;5.97;;;;;;;;;;5035018;28;20206;-75
2023/08/13 12:41:49;;;;;;;9.27;6.60;;;;;;;;;;5037019;28;20206;-75
2023/08/13 12:44:16;;;;;;;9.77;6.25;;;;;;;;;;5036269;28;20290;-77
2023/08/13 12:46:45;;;;;;;6.93;6.07;;;;;;;;;;5036509;28;20206;-77
2023/08/13 12:49:15;;;;;;;8.65;5.70;;;;;;;;;;5034469;28;20525;-76
2023/08/13 12:51:44;;;;;;;7.88;6.05;;;;;;;;;;5035684;28;20206;-74
2023/08/13 12:54:11;;;;;;;7.38;6.18;;;;;;;;;;5038449;28;20222;-76
2023/08/13 12:56:39;;;;;;;10.02;5.72;;;;;;;;;;5043325;28;20369;-75
2023/08/13 12:59:06;;;;;;;8.90;5.57;;;;;;;;;;5043948;28;20233;-75
2023/08/13 13:01:33;;;;;;;7.10;5.22;;;;;;;;;;5043042;28;20330;-77
2023/08/13 13:04:00;;;;;;;5.20;4.70;;;;;;;;;;5040397;28;20621;-75
2023/08/13 13:06:28;;;;;;;11.50;7.40;;;;;;;;;;5036355;28;20204;-75
2023/08/13 13:08:56;;;;;;;6.65;5.85;;;;;;;;;;5041544;28;20225;-75
2023/08/13 13:11:24;;;;;;;8.50;6.15;;;;;;;;;;5039801;28;20214;-77
2023/08/13 13:13:51;;;;;;;7.35;5.78;;;;;;;;;;5037269;28;20202;-75
2023/08/13 13:16:19;;;;;;;8.18;5.82;;;;;;;;;;5040815;28;20317;-75
2023/08/13 13:18:47;;;;;;;7.70;6.00;;;;;;;;;;5038373;28;20229;-76
2023/08/13 13:21:15;;;;;;;6.93;6.22;;;;;;;;;;5040387;28;20737;-75
2023/08/13 13:23:42;;;;;;;7.22;6.18;;;;;;;;;;5043848;28;20225;-74
2023/08/13 13:26:09;;;;;;;6.70;6.00;;;;;;;;;;5042107;28;20293;-75
2023/08/13 13:28:40;;;;;;;7.40;5.68;;;;;;;;;;5037359;28;20226;-76
2023/08/13 13:31:07;;;;;;;6.80;6.10;;;;;;;;;;5020062;28;20248;-75
2023/08/13 13:33:35;;;;;;;8.35;5.90;;;;;;;;;;5038050;28;20723;-77
2023/08/13 13:36:03;;;;;;;7.68;6.97;;;;;;;;;;5028065;28;20226;-77
2023/08/13 13:38:31;;;;;;;8.07;7.25;;;;;;;;;;5017216;28;20233;-77
2023/08/13 13:40:58;;;;;;;8.48;7.45;;;;;;;;;;5016178;28;20285;-76
2023/08/13 13:43:25;;;;;;;8.90;8.10;;;;;;;;;;5022135;28;20297;-78
2023/08/13 13:45:53;;;;;;;9.65;7.80;;;;;;;;;;5038000;28;20256;-76
2023/08/13 13:48:21;;;;;;;8.90;8.10;;;;;;;;;;5036972;28;20260;-75
2023/08/13 13:50:48;;;;;;;8.90;8.00;;;;;;;;;;5038360;28;20202;-75
2023/08/13 13:53:16;;;;;;;9.55;8.65;;;;;;;;;;5036367;28;20287;-75
2023/08/13 13:55:47;;;;;;;9.23;8.32;;;;;;;;;;5038630;28;20703;-74
2023/08/13 13:58:14;;;;;;;9.57;7.63;;;;;;;;;;5036548;28;20226;-73
2023/08/13 14:00:43;;;;;;;9.80;7.63;;;;;;;;;;5037176;28;20732;-78
2023/08/13 14:03:10;;;;;;;7.72;6.80;;;;;;;;;;5033466;28;20293;-78
2023/08/13 14:05:38;;;;;;;7.00;6.30;;;;;;;;;;5031397;28;20550;-76
2023/08/13 14:08:05;;;;;;;7.20;5.75;;;;;;;;;;5050241;22;20226;-67
2023/08/13 14:10:33;;;;;;;7.18;5.47;;;;;;;;;;5048703;28;20209;-67
2023/08/13 14:13:00;;;;;;;5.32;4.80;;;;;;;;;;5055099;28;20216;-65
2023/08/13 14:15:27;;;;;;;5.85;4.32;;;;;;;;;;5053633;28;20222;-67
2023/08/13 14:17:55;;;;;;;7.10;4.57;;;;;;;;;;5054083;28;20833;-68
2023/08/13 14:20:22;;;;;;;6.13;4.60;;;;;;;;;;5050834;28;20446;-67
2023/08/13 14:22:50;;;;;;;6.78;4.53;;;;;;;;;;5053980;28;20693;-66
2023/08/13 14:25:17;;;;;;;8.75;4.55;;;;;;;;;;5052019;28;20206;-66
2023/08/13 14:27:44;;;;;;;5.40;4.07;;;;;;;;;;5057929;28;20209;-66
2023/08/13 14:30:13;;;;;;;5.38;4.47;;;;;;;;;;5052747;28;20241;-67
2023/08/13 14:32:40;;;;;;;5.72;4.22;;;;;;;;;;5054175;28;20591;-65
2023/08/13 14:35:08;;;;;;;4.80;4.20;;;;;;;;;;5054599;28;20522;-63
2023/08/13 14:37:35;;;;;;;7.75;4.50;;;;;;;;;;5053080;28;20202;-65
2023/08/13 14:40:02;;;;;;;5.88;4.30;;;;;;;;;;5057768;28;20210;-67
2023/08/13 14:42:30;;;;;;;5.80;4.65;;;;;;;;;;5058648;28;20581;-68
2023/08/13 14:44:57;;;;;;;5.47;4.97;;;;;;;;;;5058459;28;20209;-66
2023/08/13 14:47:24;;;;;;;6.93;4.68;;;;;;;;;;5056357;28;20221;-65
2023/08/13 14:49:52;;;;;;;7.72;4.78;;;;;;;;;;5058264;28;20212;-67